Time;durP1;ratioP1;P1;durP2;ratioP2;P2;SDS_P1;SDS_P2;PMS_P1;PMS_P2;Temp;Humidity;BMP_temperature;BMP_pressure;BME280_temperature;BME280_humidity;BME280_pressure;Samples;Min_cycle;Max_cycle;Signal;HPM_P1;HPM_P2
2023/11/07 00:04:42;;;;;;;0.40;0.10;;;;;;;9.99;74.66;151185.66;10375728;28;20401;-71
2023/11/07 00:09:43;;;;;;;0.10;0.08;;;;;;;9.99;73.99;151186.94;10375191;28;20523;-73
2023/11/07 00:14:46;;;;;;;0.50;0.20;;;;;;;9.95;74.14;151176.59;10375963;28;20049;-73
2023/11/07 00:19:50;;;;;;;0.32;0.13;;;;;;;9.89;73.81;151159.84;10379341;28;20517;-73
2023/11/07 00:24:53;;;;;;;0.20;0.10;;;;;;;9.91;72.58;151166.28;10376983;28;20053;-72
2023/11/07 00:29:55;;;;;;;0.85;0.10;;;;;;;9.82;72.44;151144.34;10377676;28;20042;-72
2023/11/07 00:34:57;;;;;;;0.22;0.10;;;;;;;9.75;72.80;151125.00;10376600;28;20100;-73
2023/11/07 00:40:00;;;;;;;0.75;0.10;;;;;;;9.60;73.30;151087.56;10376195;28;20045;-72
2023/11/07 00:45:02;;;;;;;0.70;0.10;;;;;;;9.51;73.72;151065.63;10376696;28;20464;-72
2023/11/07 00:50:05;;;;;;;0.00;0.00;;;;;;;9.39;74.89;151033.41;10376059;28;20049;-71
2023/11/07 00:55:08;;;;;;;0.22;0.10;;;;;;;9.37;75.19;151029.53;10376916;28;20108;-72
2023/11/07 01:00:10;;;;;;;0.43;0.10;;;;;;;9.26;76.48;151001.16;10376814;28;20072;-72
2023/11/07 01:05:12;;;;;;;0.20;0.10;;;;;;;9.18;77.50;150981.81;10376637;28;20081;-72
2023/11/07 01:10:14;;;;;;;0.10;0.10;;;;;;;9.23;77.84;150994.69;10388018;23;20046;-75
2023/11/07 01:15:16;;;;;;;0.10;0.00;;;;;;;9.19;78.78;150983.09;10373059;28;20038;-75
2023/11/07 01:20:18;;;;;;;1.10;0.15;;;;;;;9.19;78.85;150983.09;10371807;28;20072;-75
2023/11/07 01:25:20;;;;;;;0.28;0.10;;;;;;;9.30;78.34;151012.78;10357136;28;20052;-75
2023/11/07 01:30:22;;;;;;;0.20;0.20;;;;;;;9.10;79.45;150962.44;10371685;28;20101;-75
2023/11/07 01:35:24;;;;;;;0.52;0.20;;;;;;;9.28;78.57;151007.59;10371382;28;20041;-75
2023/11/07 01:40:28;;;;;;;1.35;0.13;;;;;;;9.28;78.16;151007.59;10375729;28;20057;-75
2023/11/07 01:45:30;;;;;;;0.35;0.10;;;;;;;9.42;77.73;151041.13;10380088;28;20038;-75
2023/11/07 01:50:32;;;;;;;0.20;0.10;;;;;;;9.66;76.36;151103.09;10380905;28;20046;-75
2023/11/07 01:55:35;;;;;;;0.73;0.17;;;;;;;9.53;77.35;151070.81;10379529;28;20125;-75
2023/11/07 02:00:39;;;;;;;0.65;0.10;;;;;;;9.77;75.94;151131.44;10378281;28;20046;-75
2023/11/07 02:05:42;;;;;;;0.52;0.17;;;;;;;9.71;76.50;151114.69;10378027;28;20046;-75
2023/11/07 02:10:45;;;;;;;0.05;0.05;;;;;;;9.87;75.58;151155.94;10378399;28;20049;-75
2023/11/07 02:15:46;;;;;;;0.30;0.10;;;;;;;9.96;75.21;151177.88;10377981;28;20049;-75
2023/11/07 02:20:48;;;;;;;1.05;0.20;;;;;;;10.04;74.89;151198.53;10377739;28;20050;-75
2023/11/07 02:25:51;;;;;;;4.43;0.10;;;;;;;9.94;75.08;151172.75;10379021;28;20505;-75
2023/11/07 02:30:53;;;;;;;0.85;0.30;;;;;;;9.82;75.92;151143.06;10377936;28;20069;-74
2023/11/07 02:35:54;;;;;;;3.13;0.63;;;;;;;9.97;74.72;151180.50;10378967;28;20042;-75
2023/11/07 02:40:56;;;;;;;0.80;0.15;;;;;;;9.90;75.45;151162.41;10378244;28;20045;-75
2023/11/07 02:45:58;;;;;;;0.35;0.17;;;;;;;9.83;76.30;151146.94;10377226;28;20045;-75
2023/11/07 02:51:00;;;;;;;0.43;0.10;;;;;;;10.03;75.35;151197.25;10375236;28;20049;-75
2023/11/07 02:56:02;;;;;;;0.38;0.10;;;;;;;9.99;75.48;151186.94;10378338;28;20044;-75
2023/11/07 03:01:04;;;;;;;0.22;0.20;;;;;;;10.09;74.84;151211.44;10376131;28;20054;-75
2023/11/07 03:06:06;;;;;;;0.50;0.17;;;;;;;10.11;74.64;151216.63;10375774;28;20050;-76
2023/11/07 03:11:08;;;;;;;0.35;0.10;;;;;;;10.11;74.79;151217.91;10377379;28;20049;-75
2023/11/07 03:16:10;;;;;;;0.47;0.28;;;;;;;10.05;75.70;151202.44;10376498;28;20041;-75
2023/11/07 03:21:12;;;;;;;1.08;0.45;;;;;;;10.33;73.26;151273.47;10375251;28;20061;-75
2023/11/07 03:26:14;;;;;;;0.85;0.20;;;;;;;10.39;73.46;151286.38;10376425;28;20042;-75
2023/11/07 03:31:15;;;;;;;0.50;0.20;;;;;;;10.49;72.50;151312.19;10375006;28;20076;-75
2023/11/07 03:36:17;;;;;;;0.30;0.25;;;;;;;10.52;72.82;151319.94;10375967;28;20042;-74
2023/11/07 03:41:22;;;;;;;0.88;0.10;;;;;;;10.51;73.10;151317.38;10376293;28;20508;-75
2023/11/07 03:46:23;;;;;;;1.10;0.17;;;;;;;10.35;74.51;151277.34;10376127;28;20069;-75
2023/11/07 03:51:25;;;;;;;1.55;0.10;;;;;;;10.41;73.29;151291.56;10375960;28;20453;-74
2023/11/07 03:56:27;;;;;;;1.30;0.20;;;;;;;10.44;73.21;151299.28;10375469;28;20034;-74
2023/11/07 04:01:36;;;;;;;0.55;0.20;;;;;;;10.47;73.02;151307.03;10374773;28;20041;-74
2023/11/07 04:06:38;;;;;;;0.70;0.15;;;;;;;10.49;73.02;151313.53;10375907;28;20037;-74
2023/11/07 04:11:40;;;;;;;0.30;0.10;;;;;;;10.47;73.35;151307.03;10374764;28;20048;-75
2023/11/07 04:16:42;;;;;;;0.65;0.30;;;;;;;10.54;72.46;151326.44;10374521;28;20077;-74
2023/11/07 04:21:44;;;;;;;0.55;0.13;;;;;;;10.56;72.26;151331.56;10373422;28;20156;-75
2023/11/07 04:26:46;;;;;;;0.30;0.20;;;;;;;10.54;72.61;151326.44;10374549;28;20058;-75
2023/11/07 04:31:47;;;;;;;0.65;0.25;;;;;;;10.54;72.54;151325.13;10373173;28;20440;-75
2023/11/07 04:36:51;;;;;;;1.05;0.30;;;;;;;10.49;73.04;151312.19;10373977;28;20052;-74
2023/11/07 04:41:53;;;;;;;1.50;0.30;;;;;;;10.49;72.85;151312.19;10374468;28;20084;-75
2023/11/07 04:46:55;;;;;;;0.20;0.10;;;;;;;10.47;73.14;151308.31;10373890;28;20100;-74
2023/11/07 04:51:58;;;;;;;0.85;0.30;;;;;;;10.49;73.31;151313.53;10374614;28;20548;-74
2023/11/07 04:57:03;;;;;;;0.40;0.30;;;;;;;10.27;73.85;151256.66;10373587;28;20042;-74
2023/11/07 05:02:06;;;;;;;1.33;0.40;;;;;;;10.14;75.11;151223.06;10374593;28;20042;-74
2023/11/07 05:07:08;;;;;;;0.20;0.10;;;;;;;10.26;74.38;151254.09;10373243;28;20052;-75
2023/11/07 05:12:11;;;;;;;0.22;0.20;;;;;;;10.20;73.84;151239.88;10373783;28;20048;-74
2023/11/07 05:17:16;;;;;;;0.20;0.20;;;;;;;10.24;74.20;151250.25;10380277;28;20038;-74
2023/11/07 05:22:17;;;;;;;0.63;0.25;;;;;;;10.28;73.89;151259.28;10382600;28;20311;-75
2023/11/07 05:27:19;;;;;;;1.38;0.25;;;;;;;10.22;74.41;151243.72;10381219;28;20509;-75
2023/11/07 05:32:21;;;;;;;0.73;0.30;;;;;;;10.19;74.47;151236.00;10381173;28;20092;-75
2023/11/07 05:37:23;;;;;;;0.43;0.20;;;;;;;10.32;73.47;151269.63;10379116;28;20084;-75
2023/11/07 05:42:25;;;;;;;0.95;0.20;;;;;;;10.21;73.98;151241.16;10380861;28;20055;-76
2023/11/07 05:47:27;;;;;;;1.17;0.20;;;;;;;10.08;74.19;151208.88;10379488;28;20509;-75
2023/11/07 05:52:28;;;;;;;0.40;0.20;;;;;;;10.02;74.61;151194.69;10379969;28;20421;-76
2023/11/07 05:57:30;;;;;;;0.25;0.20;;;;;;;10.01;74.35;151190.84;10379538;28;20120;-76
2023/11/07 06:02:32;;;;;;;0.28;0.20;;;;;;;10.03;73.19;151197.25;10380455;28;20120;-76
2023/11/07 06:07:34;;;;;;;0.32;0.30;;;;;;;9.91;73.95;151166.28;10361846;28;20073;-76
2023/11/07 06:12:36;;;;;;;0.35;0.30;;;;;;;9.92;73.78;151167.63;10379835;28;20045;-77
2023/11/07 06:17:38;;;;;;;1.02;0.13;;;;;;;9.87;73.99;151155.94;10379076;28;20140;-76
2023/11/07 06:22:40;;;;;;;1.27;0.35;;;;;;;9.81;73.96;151140.47;10378973;28;20429;-75
2023/11/07 06:27:42;;;;;;;0.73;0.45;;;;;;;9.67;75.25;151104.38;10378467;28;20050;-75
2023/11/07 06:32:44;;;;;;;1.35;0.38;;;;;;;9.57;75.54;151079.84;10379959;28;20108;-75
2023/11/07 06:37:46;;;;;;;0.20;0.20;;;;;;;9.46;76.37;151051.44;10378395;28;20041;-76
2023/11/07 06:42:48;;;;;;;1.98;0.40;;;;;;;9.60;75.39;151088.84;10377584;28;20050;-77
2023/11/07 06:47:51;;;;;;;0.70;0.40;;;;;;;9.57;76.00;151079.84;10378990;28;20042;-75
2023/11/07 06:52:53;;;;;;;1.42;0.40;;;;;;;9.50;75.87;151061.78;10378489;28;20065;-74
2023/11/07 06:57:55;;;;;;;1.15;0.35;;;;;;;9.51;76.03;151064.34;10377489;28;20038;-76
2023/11/07 07:03:01;;;;;;;0.75;0.40;;;;;;;9.52;75.88;151066.97;10378135;28;20053;-76
2023/11/07 07:08:03;;;;;;;0.95;0.38;;;;;;;9.71;74.76;151114.69;10391678;23;20056;-76
2023/11/07 07:13:05;;;;;;;0.75;0.22;;;;;;;9.69;75.32;151109.50;10380113;28;20046;-75
2023/11/07 07:18:08;;;;;;;0.95;0.45;;;;;;;9.76;74.92;151127.59;10378683;28;20077;-74
2023/11/07 07:23:10;;;;;;;0.73;0.30;;;;;;;9.80;74.56;151139.19;10378793;28;20049;-76
2023/11/07 07:28:12;;;;;;;2.38;0.55;;;;;;;10.03;72.76;151197.25;10378136;28;20069;-75
2023/11/07 07:33:19;;;;;;;1.58;0.40;;;;;;;10.05;73.08;151202.44;10379593;28;20049;-75
2023/11/07 07:38:24;;;;;;;3.03;0.35;;;;;;;10.16;71.52;151228.25;10378887;28;20106;-74
2023/11/07 07:43:27;;;;;;;0.88;0.40;;;;;;;10.43;69.77;151298.00;10378465;28;20042;-74
2023/11/07 07:48:29;;;;;;;0.45;0.13;;;;;;;10.44;70.24;151299.28;10378049;28;20042;-74
2023/11/07 07:53:34;;;;;;;1.63;0.50;;;;;;;10.59;69.32;151338.03;10379556;28;20046;-74
2023/11/07 07:58:35;;;;;;;0.40;0.20;;;;;;;10.66;68.98;151356.09;10378449;28;20476;-75
2023/11/07 08:03:38;;;;;;;0.65;0.30;;;;;;;10.69;69.18;151362.56;10377627;28;20501;-72
2023/11/07 08:08:40;;;;;;;8.95;0.60;;;;;;;10.78;68.51;151385.81;10377372;28;20141;-72
2023/11/07 08:13:42;;;;;;;1.00;0.50;;;;;;;10.86;67.82;151407.75;10376243;28;20129;-72
2023/11/07 08:18:46;;;;;;;0.45;0.25;;;;;;;10.98;68.18;151436.16;10377134;28;20050;-73
2023/11/07 08:23:48;;;;;;;0.40;0.30;;;;;;;10.93;68.17;151423.25;10377498;28;20045;-74
2023/11/07 08:28:50;;;;;;;2.67;1.20;;;;;;;11.05;66.62;151455.53;10376417;28;20397;-73
2023/11/07 08:33:51;;;;;;;0.52;0.38;;;;;;;11.15;67.02;151480.06;10377432;28;20061;-71
2023/11/07 08:38:53;;;;;;;0.30;0.28;;;;;;;11.28;66.50;151512.38;10376314;28;20100;-71
2023/11/07 08:43:55;;;;;;;0.85;0.40;;;;;;;11.57;65.40;151586.03;10374636;28;20106;-73
2023/11/07 08:48:57;;;;;;;0.30;0.10;;;;;;;11.66;64.72;151609.28;10376344;28;20046;-72
2023/11/07 08:53:59;;;;;;;0.50;0.30;;;;;;;11.61;65.08;151597.66;10375311;28;20056;-72
2023/11/07 08:59:01;;;;;;;1.00;0.82;;;;;;;11.71;65.23;151622.22;10375521;28;20409;-72
2023/11/07 09:04:09;;;;;;;2.05;0.30;;;;;;;11.67;65.40;151610.56;10375929;28;20077;-72
2023/11/07 09:09:14;;;;;;;0.28;0.20;;;;;;;11.61;64.44;151596.38;10357565;28;20366;-72
2023/11/07 09:14:17;;;;;;;0.87;0.40;;;;;;;11.83;63.41;151652.00;10375280;28;20042;-72
2023/11/07 09:19:19;;;;;;;0.68;0.30;;;;;;;11.98;63.02;151690.75;10375708;28;20061;-72
2023/11/07 09:24:21;;;;;;;0.68;0.10;;;;;;;12.39;61.21;151794.16;10374149;28;20045;-72
2023/11/07 09:29:23;;;;;;;0.95;0.45;;;;;;;12.33;60.52;151779.94;10375242;28;20069;-73
2023/11/07 09:34:25;;;;;;;0.65;0.20;;;;;;;12.24;60.94;151756.69;10375848;28;20046;-73
2023/11/07 09:39:27;;;;;;;0.38;0.10;;;;;;;12.12;61.38;151726.94;10374531;28;20409;-71
2023/11/07 09:44:29;;;;;;;0.47;0.40;;;;;;;12.12;61.62;151726.94;10375533;28;20054;-72
2023/11/07 09:49:34;;;;;;;1.23;0.30;;;;;;;12.19;60.82;151743.75;10374520;28;20046;-72
2023/11/07 09:54:38;;;;;;;0.85;0.10;;;;;;;12.26;60.18;151760.53;10377323;28;20093;-71
2023/11/07 09:59:52;;;;;;;0.90;0.13;;;;;;;12.37;59.76;151790.28;10377740;28;20042;-72
2023/11/07 10:04:55;;;;;;;1.40;0.80;;;;;;;12.30;62.04;151770.88;10382995;28;20436;-72
2023/11/07 10:09:57;;;;;;;0.30;0.20;;;;;;;12.49;60.36;151820.03;10383163;28;20042;-73
2023/11/07 10:15:24;;;;;;;1.08;0.20;;;;;;;12.55;59.83;151835.53;10384441;28;20490;-72
2023/11/07 10:20:31;;;;;;;1.67;0.40;;;;;;;12.48;59.29;151816.13;10381310;28;20046;-73
2023/11/07 10:25:34;;;;;;;1.00;0.90;;;;;;;12.61;58.43;151849.75;10379887;28;20497;-73
2023/11/07 10:30:46;;;;;;;0.55;0.40;;;;;;;12.77;57.53;151891.16;10380182;28;20056;-72
2023/11/07 10:35:51;;;;;;;0.90;0.30;;;;;;;12.95;57.59;151935.13;10379220;28;20056;-76
2023/11/07 10:40:53;;;;;;;0.60;0.15;;;;;;;13.35;54.64;152038.66;10381168;28;20045;-77
2023/11/07 10:45:59;;;;;;;0.32;0.20;;;;;;;13.55;53.89;152087.88;10385918;28;20045;-76
2023/11/07 10:51:05;;;;;;;0.30;0.20;;;;;;;14.10;53.32;152227.63;10381695;28;20050;-76
2023/11/07 10:56:15;;;;;;;0.30;0.13;;;;;;;13.74;53.29;152135.72;10382921;28;20050;-76
2023/11/07 11:01:19;;;;;;;0.20;0.20;;;;;;;14.08;52.48;152222.47;10381200;28;20049;-76
2023/11/07 11:06:23;;;;;;;0.90;0.10;;;;;;;13.53;53.15;152082.66;10381992;28;20485;-77
2023/11/07 11:11:30;;;;;;;0.17;0.10;;;;;;;13.26;54.54;152014.09;10382081;28;20444;-76
2023/11/07 11:16:33;;;;;;;1.40;0.20;;;;;;;13.18;53.21;151993.34;10381423;28;20041;-76
2023/11/07 11:21:38;;;;;;;0.43;0.20;;;;;;;13.17;55.52;151992.06;10382504;28;20145;-76
2023/11/07 11:26:47;;;;;;;0.25;0.10;;;;;;;13.11;53.64;151976.53;10381079;28;20097;-76
2023/11/07 11:31:49;;;;;;;0.95;0.10;;;;;;;13.05;53.67;151962.28;10381927;28;20073;-76
2023/11/07 11:36:53;;;;;;;0.75;0.15;;;;;;;13.24;53.89;152008.94;10393863;28;20405;-76
2023/11/07 11:41:56;;;;;;;0.25;0.00;;;;;;;13.43;54.09;152058.09;10395109;28;20083;-76
2023/11/07 11:46:59;;;;;;;0.13;0.10;;;;;;;13.48;54.19;152071.03;10381681;28;20049;-75
2023/11/07 11:52:07;;;;;;;0.57;0.13;;;;;;;13.66;53.50;152115.03;10386566;28;20562;-76
2023/11/07 11:57:10;;;;;;;0.43;0.30;;;;;;;13.80;53.56;152152.53;10418299;28;20042;-76
2023/11/07 12:02:12;;;;;;;0.68;0.13;;;;;;;13.90;51.85;152177.16;10420614;28;20323;-76
2023/11/07 12:07:20;;;;;;;0.30;0.20;;;;;;;13.79;53.13;152148.66;10417856;28;20041;-76
2023/11/07 12:12:24;;;;;;;1.88;0.52;;;;;;;13.88;52.80;152171.97;10418161;28;20075;-76
2023/11/07 12:17:32;;;;;;;0.60;0.40;;;;;;;13.60;54.80;152100.78;10419849;28;20097;-77
2023/11/07 12:22:35;;;;;;;0.35;0.30;;;;;;;13.43;53.53;152058.09;10419774;28;20054;-76
2023/11/07 12:27:38;;;;;;;0.40;0.22;;;;;;;13.14;55.25;151985.56;10419894;28;20076;-77
2023/11/07 12:32:40;;;;;;;0.80;0.10;;;;;;;12.99;55.58;151945.50;10419220;28;20045;-77
2023/11/07 12:37:42;;;;;;;0.10;0.10;;;;;;;13.12;55.01;151980.41;10419942;28;20065;-76
2023/11/07 12:42:54;;;;;;;0.25;0.17;;;;;;;13.09;55.19;151972.63;10417800;28;20042;-77
2023/11/07 12:47:56;;;;;;;1.25;0.40;;;;;;;13.06;56.51;151964.91;10362854;28;20046;-76
2023/11/07 12:53:00;;;;;;;0.68;0.30;;;;;;;13.11;56.85;151976.53;10378360;28;20042;-76
2023/11/07 12:58:06;;;;;;;0.17;0.17;;;;;;;13.11;55.85;151976.53;10380292;28;20405;-76
2023/11/07 13:03:11;;;;;;;0.15;0.10;;;;;;;13.12;56.97;151980.41;10376527;28;20046;-77
2023/11/07 13:08:25;;;;;;;0.95;0.68;;;;;;;13.02;56.68;151953.25;10378466;28;20404;-77
2023/11/07 13:13:27;;;;;;;0.75;0.30;;;;;;;13.01;57.04;151950.63;10379011;28;20041;-76
2023/11/07 13:18:29;;;;;;;0.40;0.20;;;;;;;12.94;56.54;151933.84;10365284;23;20080;-73
2023/11/07 13:23:31;;;;;;;1.13;0.85;;;;;;;12.73;58.94;151879.50;10332852;28;20043;-73
2023/11/07 13:28:34;;;;;;;1.25;0.80;;;;;;;12.72;59.19;151878.22;10370173;28;20412;-73
2023/11/07 13:33:35;;;;;;;0.30;0.20;;;;;;;12.55;60.71;151834.25;10373135;28;20069;-73
2023/11/07 13:38:37;;;;;;;0.10;0.10;;;;;;;12.51;60.77;151825.19;10379504;28;20049;-71
2023/11/07 13:43:40;;;;;;;0.95;0.22;;;;;;;12.63;60.29;151854.94;10391487;28;20099;-72
2023/11/07 13:48:42;;;;;;;0.08;0.08;;;;;;;12.51;61.78;151825.19;10420190;28;20049;-73
2023/11/07 13:53:44;;;;;;;0.35;0.10;;;;;;;12.65;60.28;151858.81;10419974;28;20492;-72
2023/11/07 13:58:46;;;;;;;0.28;0.10;;;;;;;12.69;59.51;151870.44;10421311;28;20044;-72
2023/11/07 14:03:48;;;;;;;0.43;0.10;;;;;;;12.54;60.20;151832.97;10419812;28;20528;-71
2023/11/07 14:08:50;;;;;;;0.40;0.10;;;;;;;12.46;60.90;151812.28;10421166;28;20045;-71
2023/11/07 14:13:51;;;;;;;0.10;0.10;;;;;;;12.45;60.43;151808.41;10407509;28;20124;-72
2023/11/07 14:18:53;;;;;;;0.20;0.10;;;;;;;12.35;61.54;151785.16;10379297;28;20561;-72
2023/11/07 14:23:58;;;;;;;0.30;0.10;;;;;;;12.35;61.06;151783.81;10380255;28;20046;-71
2023/11/07 14:29:00;;;;;;;0.20;0.20;;;;;;;12.13;63.03;151728.25;10378833;28;20072;-71
2023/11/07 14:34:07;;;;;;;0.75;0.10;;;;;;;12.08;62.96;151715.28;10378621;28;20065;-72
2023/11/07 14:39:12;;;;;;;0.17;0.17;;;;;;;11.94;63.97;151680.41;10378365;28;20532;-71
2023/11/07 14:44:14;;;;;;;0.57;0.55;;;;;;;12.02;62.69;151699.81;10378853;28;20046;-71
2023/11/07 14:49:16;;;;;;;0.45;0.30;;;;;;;12.01;63.04;151698.50;10377931;28;20466;-72
2023/11/07 14:54:18;;;;;;;0.10;0.00;;;;;;;11.86;64.10;151659.72;10377283;28;20173;-72
2023/11/07 14:59:20;;;;;;;0.13;0.10;;;;;;;11.84;63.88;151655.84;10378216;28;20046;-72
2023/11/07 15:04:23;;;;;;;0.20;0.20;;;;;;;11.89;64.04;151666.19;10378229;28;20120;-71
2023/11/07 15:09:25;;;;;;;0.10;0.10;;;;;;;11.75;64.22;151631.25;10378072;28;20042;-71
2023/11/07 15:14:27;;;;;;;0.30;0.30;;;;;;;11.51;65.79;151571.84;10375575;28;20050;-73
2023/11/07 15:19:29;;;;;;;0.77;0.10;;;;;;;11.72;64.78;151623.50;10376861;28;20073;-72
2023/11/07 15:24:32;;;;;;;0.20;0.10;;;;;;;11.74;64.21;151628.69;10375657;28;20048;-71
2023/11/07 15:29:35;;;;;;;0.40;0.20;;;;;;;11.64;64.67;151604.09;10375255;28;20421;-72
2023/11/07 15:34:37;;;;;;;0.30;0.20;;;;;;;11.58;64.94;151589.91;10376148;28;20128;-72
2023/11/07 15:39:41;;;;;;;0.32;0.20;;;;;;;11.60;65.29;151595.09;10376342;28;20042;-72
2023/11/07 15:44:43;;;;;;;0.52;0.20;;;;;;;11.48;66.49;151562.78;10374710;28;20088;-72
2023/11/07 15:49:45;;;;;;;0.30;0.20;;;;;;;11.46;65.82;151557.59;10376107;28;20084;-72
2023/11/07 15:54:47;;;;;;;0.73;0.50;;;;;;;11.47;65.23;151561.50;10375604;28;20044;-72
2023/11/07 15:59:48;;;;;;;0.57;0.40;;;;;;;11.31;66.22;151521.41;10375115;28;20037;-72
2023/11/07 16:04:50;;;;;;;0.20;0.20;;;;;;;11.32;65.29;151524.00;10375263;28;20132;-72
2023/11/07 16:09:52;;;;;;;0.20;0.10;;;;;;;11.19;65.40;151489.13;10374127;28;20052;-72
2023/11/07 16:14:54;;;;;;;0.20;0.20;;;;;;;10.96;66.76;151431.00;10373828;28;20042;-72
2023/11/07 16:19:56;;;;;;;1.30;0.50;;;;;;;10.94;66.44;151425.88;10373706;28;20034;-72
2023/11/07 16:24:58;;;;;;;0.55;0.30;;;;;;;10.91;66.61;151418.09;10363027;28;20057;-73
2023/11/07 16:30:00;;;;;;;0.68;0.32;;;;;;;10.74;67.00;151376.75;10374285;28;20129;-72
2023/11/07 16:35:04;;;;;;;0.50;0.40;;;;;;;10.76;66.79;151380.66;10374087;28;20092;-72
2023/11/07 16:40:11;;;;;;;0.30;0.30;;;;;;;10.48;68.08;151310.91;10374352;28;20095;-73
2023/11/07 16:45:14;;;;;;;0.40;0.15;;;;;;;10.31;69.21;151268.34;10374077;28;20052;-71
2023/11/07 16:50:17;;;;;;;0.70;0.40;;;;;;;10.41;68.46;151292.84;10373487;28;20120;-73
2023/11/07 16:55:19;;;;;;;0.68;0.52;;;;;;;10.40;68.52;151290.22;10373318;28;20044;-72
2023/11/07 17:00:21;;;;;;;0.32;0.32;;;;;;;10.29;69.41;151261.84;10373943;28;20129;-72
2023/11/07 17:05:23;;;;;;;0.70;0.50;;;;;;;10.24;69.77;151248.91;10373625;28;20038;-71
2023/11/07 17:10:26;;;;;;;0.73;0.45;;;;;;;10.12;70.60;151219.22;10354468;28;20455;-71
2023/11/07 17:15:27;;;;;;;1.15;0.63;;;;;;;10.18;70.44;151234.72;10381542;28;20157;-73
2023/11/07 17:20:30;;;;;;;0.80;0.60;;;;;;;10.20;70.75;151239.88;10380600;28;20486;-73
2023/11/07 17:25:32;;;;;;;1.50;0.50;;;;;;;10.22;70.84;151243.72;10358488;28;20046;-72
2023/11/07 17:30:34;;;;;;;0.90;0.90;;;;;;;10.03;71.64;151197.25;10361011;28;20049;-74
2023/11/07 17:35:38;;;;;;;0.35;0.30;;;;;;;10.26;70.54;151255.38;10379936;28;20038;-72
2023/11/07 17:40:44;;;;;;;0.50;0.40;;;;;;;10.21;71.01;151242.44;10378214;28;20045;-72
2023/11/07 17:45:45;;;;;;;0.50;0.40;;;;;;;10.42;70.37;151294.13;10379552;28;20505;-72
2023/11/07 17:50:48;;;;;;;0.43;0.43;;;;;;;10.42;70.16;151295.44;10380463;28;20046;-72
2023/11/07 17:55:50;;;;;;;0.50;0.40;;;;;;;10.42;70.27;151295.44;10380347;28;20069;-72
2023/11/07 18:00:51;;;;;;;0.73;0.52;;;;;;;10.46;70.26;151305.75;10379106;28;20500;-72
2023/11/07 18:05:53;;;;;;;0.77;0.40;;;;;;;10.43;70.31;151298.00;10411714;28;20058;-71
2023/11/07 18:11:01;;;;;;;0.60;0.40;;;;;;;10.37;71.06;151282.53;10378875;28;20044;-71
2023/11/07 18:16:04;;;;;;;0.45;0.30;;;;;;;10.48;70.38;151309.63;10379819;28;20042;-72
2023/11/07 18:21:05;;;;;;;0.50;0.40;;;;;;;10.38;70.82;151283.81;10380093;28;20046;-72
2023/11/07 18:26:07;;;;;;;0.40;0.30;;;;;;;10.30;71.05;151265.72;10380130;28;20049;-72
2023/11/07 18:31:09;;;;;;;0.40;0.30;;;;;;;10.33;71.02;151272.19;10379543;28;20038;-73
2023/11/07 18:36:11;;;;;;;0.90;0.25;;;;;;;10.24;72.34;151248.91;10379323;28;20077;-71
2023/11/07 18:41:16;;;;;;;0.30;0.20;;;;;;;10.11;72.66;151216.63;10380059;28;20041;-71
2023/11/07 18:46:18;;;;;;;0.25;0.10;;;;;;;10.26;71.81;151255.38;10379816;28;20042;-73
2023/11/07 18:51:21;;;;;;;0.10;0.10;;;;;;;10.16;72.89;151228.25;10379165;28;20117;-72
2023/11/07 18:56:24;;;;;;;0.38;0.20;;;;;;;10.30;71.63;151264.44;10390550;28;20053;-72
2023/11/07 19:01:27;;;;;;;0.40;0.30;;;;;;;10.18;72.86;151233.41;10357300;28;20070;-73
2023/11/07 19:06:29;;;;;;;0.68;0.30;;;;;;;10.27;72.33;151258.00;10376637;28;20069;-73
2023/11/07 19:11:31;;;;;;;0.30;0.30;;;;;;;10.27;72.53;151256.66;10376348;28;20041;-72
2023/11/07 19:16:33;;;;;;;0.30;0.15;;;;;;;10.30;72.69;151264.44;10356799;28;20133;-72
2023/11/07 19:21:35;;;;;;;0.40;0.28;;;;;;;10.33;72.74;151272.19;10373872;28;20044;-74
2023/11/07 19:26:40;;;;;;;0.63;0.63;;;;;;;10.21;73.57;151242.44;10378098;28;20069;-74
2023/11/07 19:31:45;;;;;;;0.10;0.10;;;;;;;10.21;74.06;151241.16;10376209;28;20054;-75
2023/11/07 19:36:49;;;;;;;0.43;0.20;;;;;;;10.23;73.90;151247.63;10378323;28;20116;-75
2023/11/07 19:41:54;;;;;;;0.20;0.20;;;;;;;10.23;74.03;151247.63;10377745;28;20050;-76
2023/11/07 19:46:55;;;;;;;0.28;0.10;;;;;;;10.21;74.10;151242.44;10378336;28;20078;-74
2023/11/07 19:51:57;;;;;;;0.30;0.25;;;;;;;10.10;74.77;151215.34;10376698;28;20049;-74
2023/11/07 19:57:00;;;;;;;0.20;0.20;;;;;;;10.05;75.15;151201.16;10377577;28;20046;-75
2023/11/07 20:02:04;;;;;;;0.10;0.10;;;;;;;10.06;75.67;151203.75;10377664;28;20074;-75
2023/11/07 20:07:06;;;;;;;0.43;0.22;;;;;;;10.08;75.16;151210.16;10377195;28;20096;-75
2023/11/07 20:12:09;;;;;;;0.30;0.20;;;;;;;9.89;76.08;151159.84;10378042;28;20057;-75
2023/11/07 20:17:11;;;;;;;0.30;0.30;;;;;;;9.89;76.17;151159.84;10375419;28;20100;-74
2023/11/07 20:22:16;;;;;;;0.38;0.38;;;;;;;9.73;76.76;151121.13;10376370;28;20046;-74
2023/11/07 20:27:18;;;;;;;0.70;0.40;;;;;;;9.75;76.94;151125.00;10375820;28;20058;-74
2023/11/07 20:32:20;;;;;;;0.28;0.25;;;;;;;9.84;76.68;151148.25;10377089;28;20045;-74
2023/11/07 20:37:22;;;;;;;0.88;0.20;;;;;;;9.85;76.88;151152.09;10391582;28;20096;-74
2023/11/07 20:42:25;;;;;;;0.30;0.30;;;;;;;9.88;76.56;151157.28;10375964;28;20042;-74
2023/11/07 20:47:28;;;;;;;0.32;0.30;;;;;;;9.77;77.34;151131.44;10376117;28;20049;-75
2023/11/07 20:52:32;;;;;;;0.20;0.20;;;;;;;9.71;77.78;151114.69;10376196;28;20046;-75
2023/11/07 20:57:34;;;;;;;0.30;0.30;;;;;;;9.92;76.11;151167.63;10374982;28;20045;-76
2023/11/07 21:02:37;;;;;;;0.20;0.20;;;;;;;9.91;76.37;151166.28;10376447;28;20062;-75
2023/11/07 21:07:40;;;;;;;0.52;0.30;;;;;;;9.97;75.44;151181.78;10375628;28;20493;-74
2023/11/07 21:12:42;;;;;;;0.40;0.22;;;;;;;10.00;75.33;151189.50;10374842;28;20054;-74
2023/11/07 21:17:44;;;;;;;0.17;0.17;;;;;;;9.94;75.26;151174.03;10374776;28;20034;-74
2023/11/07 21:22:46;;;;;;;0.25;0.25;;;;;;;9.83;75.19;151146.94;10375496;28;20048;-74
2023/11/07 21:27:47;;;;;;;0.20;0.20;;;;;;;9.70;75.64;151113.41;10374067;28;20046;-74
2023/11/07 21:32:49;;;;;;;0.60;0.30;;;;;;;9.66;75.70;151101.78;10374299;28;20042;-74
2023/11/07 21:37:51;;;;;;;0.82;0.17;;;;;;;9.53;76.29;151069.53;10374408;28;20524;-74
2023/11/07 21:42:53;;;;;;;0.40;0.30;;;;;;;9.51;76.42;151064.34;10374362;28;20516;-75
2023/11/07 21:47:54;;;;;;;0.10;0.10;;;;;;;9.21;78.41;150988.22;10373612;28;20524;-74
2023/11/07 21:52:57;;;;;;;0.55;0.10;;;;;;;9.33;77.31;151019.19;10374091;28;20046;-74
2023/11/07 21:57:59;;;;;;;0.47;0.20;;;;;;;9.27;77.13;151005.03;10378252;28;20100;-75
2023/11/07 22:03:00;;;;;;;0.43;0.30;;;;;;;9.20;77.67;150985.66;10381203;28;20042;-74
2023/11/07 22:08:03;;;;;;;0.38;0.30;;;;;;;9.01;79.21;150939.25;10379647;28;20497;-74
2023/11/07 22:13:05;;;;;;;0.20;0.20;;;;;;;9.00;79.13;150936.66;10381000;28;20046;-74
2023/11/07 22:18:08;;;;;;;0.20;0.20;;;;;;;8.83;80.10;150892.81;10380216;28;20042;-74
2023/11/07 22:23:10;;;;;;;0.28;0.20;;;;;;;8.70;80.49;150859.28;10379792;28;20042;-74
2023/11/07 22:28:12;;;;;;;0.30;0.30;;;;;;;8.50;81.94;150809.00;10379897;28;20042;-74
2023/11/07 22:33:14;;;;;;;1.25;0.30;;;;;;;8.42;82.03;150789.69;10380209;28;20073;-74
2023/11/07 22:38:15;;;;;;;0.38;0.38;;;;;;;8.35;82.99;150772.88;10379362;28;20049;-74
2023/11/07 22:43:18;;;;;;;0.50;0.30;;;;;;;8.69;81.21;150858.00;10379131;28;20042;-74
2023/11/07 22:48:20;;;;;;;0.38;0.10;;;;;;;8.68;81.56;150855.44;10379233;28;20053;-73
2023/11/07 22:53:22;;;;;;;0.22;0.20;;;;;;;8.47;82.72;150802.56;10380093;28;20056;-73
2023/11/07 22:58:24;;;;;;;0.40;0.30;;;;;;;8.44;83.15;150794.81;10378981;28;20100;-74
2023/11/07 23:03:26;;;;;;;0.30;0.30;;;;;;;8.45;82.56;150796.09;10379037;28;20128;-75
2023/11/07 23:08:28;;;;;;;1.50;0.52;;;;;;;8.30;83.81;150758.69;10378099;28;20049;-74
2023/11/07 23:13:29;;;;;;;0.20;0.20;;;;;;;8.11;85.17;150711.03;10378682;28;20045;-74
2023/11/07 23:18:31;;;;;;;0.20;0.20;;;;;;;8.18;84.64;150729.03;10377875;28;20076;-74